OSOK1: Oswego hwy 160

Data processed at Fri Jun 05 2020 22:55


All information presented herein is the property of the government of the United States of America and may be revised or deleted at any time without prior notice.
Dissemination of this information without the expressed written consent of the Public Affairs Office, Tulsa District U.S. Army Corps of Engineers is strictly prohibited.
These data are gathered electronically and, as presented, have not undergone any form of quality control. These data are not guaranteed to be valid or correct.
Go to home page.
Go to station list.
Go to home page.

Upstream stations:

Downstream station:
Previous Day
Next Day
Current Day
    
SHEF ID:       OSOK1     Oswego hwy 160
STATION TYPE:  

               PRECIP     STAGE  RIV-FLOW   VOLTAGE  BAT-LOAD
                   in        ft       cfs      volt      volt
              Ccp-Rev   Ccp-Rev   Ccp-Rev   Ccp-Rev   Ccp-Rev
(US/Central)
06/05 00:00      0.00     16.72      8733     12.65     12.49
06/05 01:00      0.00     16.72      8733     12.57     12.49
06/05 02:00      0.00     16.70      8705     12.57     12.41
06/05 03:00      0.00     16.68      8676     12.57     12.41
06/05 04:00      0.00     16.68      8676     12.57     12.41
06/05 05:00      0.00     16.67      8662     12.57     12.41
06/05 06:00      0.00     16.64      8619     12.57     12.41
06/05 07:00      0.00     16.65      8633     12.57     12.41
06/05 08:00      0.00     16.64      8619     12.65     12.49
06/05 09:00      0.00     16.63      8604     12.89     12.73
06/05 10:00      0.00     16.64      8619     12.97     12.89
06/05 11:00      0.00     16.62      8590     13.05     12.97
06/05 12:00      0.00     16.61      8576     13.21     12.97
06/05 13:00      0.00     16.61      8576     13.21     12.97
06/05 14:00      0.00     16.59      8547     13.21     12.97
06/05 15:00      0.00     16.57      8518     13.21     12.97
06/05 16:00      0.00     16.58      8533     13.21     12.97
06/05 17:00      0.00     16.56      8504     13.21     12.97
06/05 18:00      0.00     16.55      8490     13.21     12.97
06/05 19:00      0.00     16.54      8475     12.81     12.73
06/05 20:00      0.00     16.51      8432     12.73     12.57
06/05 21:00      0.00     16.51      8432     12.65     12.57
06/05 22:00      ----      ----      ----      ----      ----
06/05 23:00      ----      ----      ----      ----      ----